createdAt,value
2022-10-18T00:00:39.214Z,1.05
2022-10-18T00:03:06.305Z,1.00
2022-10-18T00:05:34.075Z,0.93
2022-10-18T00:08:00.838Z,1.00
2022-10-18T00:10:27.625Z,0.90
2022-10-18T00:12:54.375Z,0.90
2022-10-18T00:15:21.171Z,0.90
2022-10-18T00:17:47.892Z,0.90
2022-10-18T00:20:14.614Z,0.93
2022-10-18T00:22:41.955Z,0.90
2022-10-18T00:25:09.807Z,0.95
2022-10-18T00:27:36.455Z,1.02
2022-10-18T00:30:04.121Z,1.10
2022-10-18T00:32:30.983Z,0.95
2022-10-18T00:34:57.925Z,1.20
2022-10-18T00:37:24.605Z,0.90
2022-10-18T00:42:20.780Z,1.10
2022-10-18T00:44:47.381Z,0.90
2022-10-18T00:47:18.221Z,0.80
2022-10-18T00:49:50.596Z,0.90
2022-10-18T00:52:24.000Z,1.00
2022-10-18T00:54:52.399Z,0.80
2022-10-18T00:57:19.477Z,1.02
2022-10-18T00:59:46.709Z,0.82
2022-10-18T01:02:18.467Z,0.80
2022-10-18T01:04:48.578Z,0.80
2022-10-18T01:07:37.407Z,0.88
2022-10-18T01:10:13.036Z,0.90
2022-10-18T01:12:39.844Z,0.90
2022-10-18T01:15:32.974Z,0.98
2022-10-18T01:18:09.036Z,0.90
2022-10-18T01:20:41.630Z,0.90
2022-10-18T01:23:24.430Z,0.80
2022-10-18T01:25:57.193Z,1.00
2022-10-18T01:29:13.221Z,1.00
2022-10-18T01:31:46.549Z,0.80
2022-10-18T01:36:46.822Z,1.00
2022-10-18T01:39:18.733Z,1.00
2022-10-18T01:41:47.320Z,0.90
2022-10-18T01:44:21.200Z,1.10
2022-10-18T01:46:49.165Z,0.80
2022-10-18T01:49:15.928Z,0.90
2022-10-18T01:51:42.579Z,0.90
2022-10-18T01:54:11.997Z,1.00
2022-10-18T01:56:57.280Z,1.20
2022-10-18T01:59:48.844Z,1.08
2022-10-18T02:02:50.069Z,1.05
2022-10-18T02:05:29.938Z,1.00
2022-10-18T02:08:23.762Z,0.80
2022-10-18T02:11:04.432Z,0.90
2022-10-18T02:13:37.509Z,0.85
2022-10-18T02:16:29.935Z,1.10
2022-10-18T02:19:05.676Z,1.10
2022-10-18T02:21:32.668Z,1.00
2022-10-18T02:24:02.520Z,0.82
2022-10-18T02:26:29.973Z,0.88
2022-10-18T02:28:56.711Z,1.27
2022-10-18T02:31:29.425Z,1.70
2022-10-18T02:34:09.525Z,1.10
2022-10-18T02:36:53.716Z,1.00
2022-10-18T02:39:25.529Z,0.90
2022-10-18T02:41:54.539Z,1.20
2022-10-18T02:44:21.153Z,0.90
2022-10-18T02:46:47.939Z,1.00
2022-10-18T02:49:14.718Z,0.90
2022-10-18T02:51:41.418Z,0.90
2022-10-18T02:54:08.627Z,0.90
2022-10-18T02:56:35.642Z,1.00
2022-10-18T02:59:03.841Z,1.10
2022-10-18T03:01:30.557Z,1.33
2022-10-18T03:03:57.593Z,1.13
2022-10-18T03:06:24.289Z,0.98
2022-10-18T03:08:51.013Z,1.50
2022-10-18T03:11:17.749Z,1.00
2022-10-18T03:13:44.558Z,1.02
2022-10-18T03:16:12.473Z,1.02
2022-10-18T03:18:39.176Z,1.10
2022-10-18T03:21:07.199Z,0.80
2022-10-18T03:23:34.482Z,1.02
2022-10-18T03:26:01.272Z,1.10
2022-10-18T03:28:28.352Z,1.27
2022-10-18T03:31:04.235Z,1.23
2022-10-18T03:33:32.512Z,1.10
2022-10-18T03:35:59.710Z,1.05
2022-10-18T03:38:26.536Z,1.13
2022-10-18T03:40:53.212Z,1.02
2022-10-18T03:43:19.925Z,1.30
2022-10-18T03:45:46.633Z,1.15
2022-10-18T03:48:13.556Z,1.10
2022-10-18T03:50:40.311Z,1.48
2022-10-18T03:53:06.980Z,1.30
2022-10-18T03:55:33.724Z,1.10
2022-10-18T03:58:00.652Z,2.45
2022-10-18T04:00:27.304Z,1.05
2022-10-18T04:02:55.900Z,0.98
2022-10-18T04:05:28.247Z,1.00
2022-10-18T04:07:55.218Z,1.55
2022-10-18T04:10:22.051Z,1.30
2022-10-18T04:12:48.980Z,1.00
2022-10-18T04:15:15.797Z,1.65
2022-10-18T04:17:42.459Z,1.00
2022-10-18T04:20:09.953Z,1.48
2022-10-18T04:22:36.720Z,1.05
2022-10-18T04:25:03.728Z,3.17
2022-10-18T04:27:30.921Z,1.15
2022-10-18T04:29:57.705Z,1.23
2022-10-18T04:32:24.462Z,1.42
2022-10-18T04:34:51.333Z,0.90
2022-10-18T04:37:18.062Z,1.02
2022-10-18T04:39:51.217Z,0.90
2022-10-18T04:42:21.120Z,1.00
2022-10-18T04:44:48.129Z,1.00
2022-10-18T04:47:14.998Z,1.38
2022-10-18T04:49:41.663Z,1.10
2022-10-18T04:52:08.848Z,1.30
2022-10-18T04:54:35.945Z,1.10
2022-10-18T04:57:02.746Z,1.20
2022-10-18T04:59:29.515Z,1.00
2022-10-18T05:01:56.345Z,1.05
2022-10-18T05:04:23.179Z,1.08
2022-10-18T05:06:49.843Z,1.35
2022-10-18T05:09:16.577Z,1.00
2022-10-18T05:11:43.252Z,1.60
2022-10-18T05:14:10.953Z,1.00
2022-10-18T05:16:37.639Z,1.15
2022-10-18T05:19:05.885Z,1.13
2022-10-18T05:21:33.073Z,1.40
2022-10-18T05:23:59.806Z,1.20
2022-10-18T05:26:26.538Z,1.00
2022-10-18T05:28:53.358Z,1.08
2022-10-18T05:31:20.123Z,1.10
2022-10-18T05:33:46.989Z,1.10
2022-10-18T05:36:13.968Z,1.02
2022-10-18T05:38:45.473Z,1.10
2022-10-18T05:41:21.588Z,1.30
2022-10-18T05:43:48.229Z,0.98
2022-10-18T05:46:16.944Z,1.08
2022-10-18T05:48:44.698Z,1.10
2022-10-18T05:51:11.892Z,1.23
2022-10-18T05:53:38.766Z,1.38
2022-10-18T05:56:06.844Z,1.85
2022-10-18T05:58:34.161Z,1.13
2022-10-18T06:01:05.870Z,1.35
2022-10-18T06:03:33.105Z,1.20
2022-10-18T06:06:04.897Z,1.80
2022-10-18T06:08:32.460Z,1.48
2022-10-18T06:10:59.258Z,1.25
2022-10-18T06:13:26.317Z,1.40
2022-10-18T06:15:57.735Z,1.50
2022-10-18T06:18:24.855Z,1.42
2022-10-18T06:20:59.292Z,1.23
2022-10-18T06:23:28.325Z,1.20
2022-10-18T06:26:02.387Z,1.25
2022-10-18T06:28:30.054Z,1.00
2022-10-18T06:30:58.230Z,1.48
2022-10-18T06:33:25.104Z,1.45
2022-10-18T06:36:00.119Z,1.17
2022-10-18T06:38:28.230Z,1.60
2022-10-18T06:40:56.918Z,1.95
2022-10-18T06:43:24.111Z,1.48
2022-10-18T06:45:51.363Z,1.50
2022-10-18T06:51:04.318Z,1.30
2022-10-18T06:53:32.861Z,1.58
2022-10-18T06:56:13.627Z,1.70
2022-10-18T06:58:41.036Z,1.63
2022-10-18T07:01:15.408Z,1.95
2022-10-18T07:03:42.542Z,1.70
2022-10-18T07:06:14.381Z,1.40
2022-10-18T07:08:41.527Z,1.77
2022-10-18T07:11:14.115Z,2.10
2022-10-18T07:13:40.975Z,2.33
2022-10-18T07:16:14.130Z,2.17
2022-10-18T07:18:51.930Z,2.10
2022-10-18T07:21:21.306Z,2.40
2022-10-18T07:23:49.165Z,1.85
2022-10-18T07:26:18.789Z,3.28
2022-10-18T07:28:47.836Z,2.55
2022-10-18T07:31:14.732Z,2.00
2022-10-18T07:33:46.138Z,2.05
2022-10-18T07:36:13.511Z,2.63
2022-10-18T07:38:43.214Z,2.92
2022-10-18T07:41:12.659Z,2.10
2022-10-18T07:43:48.208Z,1.95
2022-10-18T07:46:15.932Z,1.48
2022-10-18T07:48:42.824Z,1.85
2022-10-18T07:51:10.051Z,2.25
2022-10-18T07:53:37.191Z,1.80
2022-10-18T07:56:09.338Z,1.95
2022-10-18T07:58:36.865Z,1.67
2022-10-18T08:01:07.774Z,2.42
2022-10-18T08:03:35.874Z,1.67
2022-10-18T08:06:04.254Z,1.60
2022-10-18T08:08:31.072Z,2.55
2022-10-18T08:11:10.739Z,1.90
2022-10-18T08:13:37.523Z,1.88
2022-10-18T08:16:10.290Z,1.85
2022-10-18T08:18:37.653Z,2.65
2022-10-18T08:21:06.915Z,1.50
2022-10-18T08:23:33.953Z,2.17
2022-10-18T08:26:06.609Z,2.08
2022-10-18T08:28:36.814Z,1.55
2022-10-18T08:31:12.133Z,1.63
2022-10-18T08:33:39.867Z,2.65
2022-10-18T08:36:10.750Z,1.83
2022-10-18T08:38:39.759Z,2.15
2022-10-18T08:41:21.962Z,1.83
2022-10-18T08:44:07.719Z,2.03
2022-10-18T08:46:37.231Z,1.80
2022-10-18T08:49:05.729Z,1.50
2022-10-18T08:51:46.907Z,1.98
2022-10-18T08:54:15.963Z,1.40
2022-10-18T08:56:47.868Z,2.38
2022-10-18T08:59:14.752Z,2.20
2022-10-18T09:01:59.655Z,2.15
2022-10-18T09:04:51.007Z,1.85
2022-10-18T09:07:26.765Z,1.60
2022-10-18T09:10:02.681Z,2.15
2022-10-18T09:12:32.743Z,1.77
2022-10-18T09:15:22.915Z,1.58
2022-10-18T09:17:58.692Z,1.63
2022-10-18T09:20:35.713Z,1.48
2022-10-18T09:23:23.132Z,1.77
2022-10-18T09:26:06.697Z,2.25
2022-10-18T09:31:17.377Z,1.80
2022-10-18T09:33:50.927Z,1.77
2022-10-18T09:36:22.546Z,1.65
2022-10-18T09:38:56.120Z,1.70
2022-10-18T09:41:41.254Z,2.15
2022-10-18T09:44:18.804Z,1.87
2022-10-18T09:46:53.316Z,1.70
2022-10-18T09:49:27.319Z,1.45
2022-10-18T09:51:55.375Z,1.90
2022-10-18T09:54:32.116Z,2.13
2022-10-18T09:57:17.270Z,1.80
2022-10-18T09:59:47.397Z,2.28
2022-10-18T10:02:16.675Z,1.92
2022-10-18T10:04:43.599Z,1.40
2022-10-18T10:07:18.885Z,2.05
2022-10-18T10:09:57.498Z,1.60
2022-10-18T10:12:36.886Z,1.52
2022-10-18T10:15:22.533Z,1.73
2022-10-18T10:18:02.235Z,1.85
2022-10-18T10:20:45.739Z,1.70
2022-10-18T10:25:58.567Z,1.80
2022-10-18T10:28:31.487Z,1.58
2022-10-18T10:31:24.644Z,2.05
2022-10-18T10:34:06.399Z,1.90
2022-10-18T10:36:34.539Z,1.98
2022-10-18T10:39:13.023Z,2.00
2022-10-18T10:41:41.733Z,1.60
2022-10-18T10:44:17.598Z,1.75
2022-10-18T10:46:44.667Z,1.73
2022-10-18T10:49:41.676Z,2.25
2022-10-18T10:55:37.643Z,1.60
2022-10-18T10:58:04.466Z,1.88
2022-10-18T11:00:44.796Z,1.70
2022-10-18T11:03:28.979Z,1.90
2022-10-18T11:05:58.917Z,2.15
2022-10-18T11:08:36.119Z,2.08
2022-10-18T11:11:22.916Z,1.70
2022-10-18T11:14:20.632Z,1.50
2022-10-18T11:16:56.669Z,1.85
2022-10-18T11:19:34.551Z,1.75
2022-10-18T11:22:05.060Z,1.55
2022-10-18T11:24:31.818Z,1.58
2022-10-18T11:27:41.338Z,1.38
2022-10-18T11:30:49.405Z,2.38
2022-10-18T11:33:50.143Z,1.90
2022-10-18T11:38:57.731Z,1.63
2022-10-18T11:41:37.556Z,2.05
2022-10-18T11:44:14.617Z,2.10
2022-10-18T11:47:02.919Z,1.70
2022-10-18T11:50:05.183Z,1.95
2022-10-18T11:52:59.197Z,1.63
2022-10-18T11:55:55.074Z,1.73
2022-10-18T11:58:56.883Z,2.55
2022-10-18T12:01:44.042Z,1.63
2022-10-18T12:04:18.791Z,1.40
2022-10-18T12:06:48.778Z,1.60
2022-10-18T12:09:32.894Z,1.77
2022-10-18T12:12:24.880Z,1.55
2022-10-18T12:14:57.079Z,1.80
2022-10-18T12:17:51.078Z,1.73
2022-10-18T12:20:25.607Z,1.70
2022-10-18T12:23:14.675Z,2.20
2022-10-18T12:25:48.387Z,1.52
2022-10-18T12:28:30.232Z,1.98
2022-10-18T12:31:08.938Z,1.73
2022-10-18T12:33:44.136Z,1.90
2022-10-18T12:36:26.118Z,2.17
2022-10-18T12:39:02.390Z,2.33
2022-10-18T12:41:34.875Z,2.00
2022-10-18T12:44:05.974Z,1.88
2022-10-18T12:46:47.208Z,2.45
2022-10-18T12:49:17.483Z,1.65
2022-10-18T12:51:53.089Z,1.75
2022-10-18T12:54:26.814Z,2.13
2022-10-18T12:56:53.618Z,1.77
2022-10-18T12:59:20.222Z,1.55
2022-10-18T13:01:53.162Z,2.17
2022-10-18T13:04:29.184Z,1.85
2022-10-18T13:07:04.895Z,1.85
2022-10-18T13:09:36.566Z,1.70
2022-10-18T13:12:14.970Z,2.20
2022-10-18T13:14:59.218Z,2.15
2022-10-18T13:17:52.443Z,1.60
2022-10-18T13:20:30.404Z,2.03
2022-10-18T13:22:59.747Z,1.85
2022-10-18T13:25:32.822Z,2.15
2022-10-18T13:28:18.090Z,1.85
2022-10-18T13:31:17.043Z,1.60
2022-10-18T13:33:44.277Z,1.70
2022-10-18T13:36:22.496Z,2.00
2022-10-18T13:39:04.937Z,2.08
2022-10-18T13:41:35.441Z,1.92
2022-10-18T13:44:02.391Z,1.60
2022-10-18T13:46:36.330Z,2.15
2022-10-18T13:49:20.254Z,1.75
2022-10-18T13:52:03.705Z,2.08
2022-10-18T13:57:45.182Z,1.50
2022-10-18T14:00:29.303Z,2.13
2022-10-18T14:03:27.125Z,1.50
2022-10-18T14:06:12.270Z,1.30
2022-10-18T14:08:45.879Z,1.52
2022-10-18T14:11:36.343Z,1.42
2022-10-18T14:14:30.077Z,1.50
2022-10-18T14:19:44.120Z,1.70
2022-10-18T14:22:18.428Z,1.45
2022-10-18T14:24:49.891Z,2.00
2022-10-18T14:27:33.082Z,1.95
2022-10-18T14:30:20.898Z,2.47
2022-10-18T14:32:54.643Z,1.75
2022-10-18T14:35:33.295Z,1.58
2022-10-18T14:38:01.080Z,1.58
2022-10-18T14:40:27.692Z,2.35
2022-10-18T14:42:54.413Z,1.85
2022-10-18T14:45:22.595Z,2.58
2022-10-18T14:47:49.315Z,2.22
2022-10-18T14:50:30.384Z,1.73
2022-10-18T14:52:57.632Z,1.50
2022-10-18T14:55:28.887Z,1.67
2022-10-18T14:57:55.675Z,1.30
2022-10-18T15:00:48.480Z,1.75
2022-10-18T15:03:17.721Z,1.63
2022-10-18T15:06:01.073Z,2.00
2022-10-18T15:08:40.898Z,2.15
2022-10-18T15:11:11.899Z,1.63
2022-10-18T15:14:03.463Z,2.15
2022-10-18T15:16:32.675Z,2.72
2022-10-18T15:19:02.185Z,2.10
2022-10-18T15:21:29.118Z,1.30
2022-10-18T15:24:19.877Z,1.85
2022-10-18T15:26:48.687Z,1.58
2022-10-18T15:29:20.193Z,1.30
2022-10-18T15:31:49.249Z,2.25
2022-10-18T15:34:27.012Z,1.50
2022-10-18T15:36:57.305Z,2.08
2022-10-18T15:39:26.471Z,2.67
2022-10-18T15:41:54.536Z,2.05
2022-10-18T15:44:23.224Z,1.90
2022-10-18T15:46:53.443Z,2.10
2022-10-18T15:49:38.448Z,1.58
2022-10-18T15:52:08.357Z,2.03
2022-10-18T15:54:35.213Z,2.75
2022-10-18T15:57:08.667Z,2.10
2022-10-18T15:59:35.635Z,2.22
2022-10-18T16:02:02.465Z,2.08
2022-10-18T16:04:31.954Z,1.95
2022-10-18T16:07:00.003Z,2.10
2022-10-18T16:09:29.134Z,1.92
2022-10-18T16:11:57.410Z,2.03
2022-10-18T16:14:26.233Z,2.20
2022-10-18T16:17:02.280Z,2.30
2022-10-18T16:19:29.133Z,1.92
2022-10-18T16:21:56.008Z,1.65
2022-10-18T16:24:23.355Z,2.38
2022-10-18T16:26:50.601Z,1.67
2022-10-18T16:29:24.461Z,1.83
2022-10-18T16:31:53.675Z,2.60
2022-10-18T16:34:20.499Z,1.88
2022-10-18T16:36:47.286Z,2.35
2022-10-18T16:39:19.238Z,2.05
2022-10-18T16:41:47.044Z,1.73
2022-10-18T16:44:15.394Z,1.67
2022-10-18T16:46:42.370Z,1.70
2022-10-18T16:51:46.721Z,2.40
2022-10-18T16:54:13.524Z,1.70
2022-10-18T16:56:40.703Z,1.50
2022-10-18T16:59:07.738Z,3.15
2022-10-18T17:01:34.940Z,3.28
2022-10-18T17:04:02.302Z,2.72
2022-10-18T17:06:30.687Z,2.67
2022-10-18T17:08:57.775Z,2.20
2022-10-18T17:11:27.737Z,2.60
2022-10-18T17:13:55.053Z,2.70
2022-10-18T17:16:30.904Z,2.13
2022-10-18T17:19:00.219Z,2.63
2022-10-18T17:21:31.569Z,2.97
2022-10-18T17:24:06.275Z,2.00
2022-10-18T17:26:34.099Z,13.68
2022-10-18T17:29:06.270Z,4.43
2022-10-18T17:31:33.561Z,3.65
2022-10-18T17:34:02.046Z,4.05
2022-10-18T17:36:33.225Z,9.20
2022-10-18T17:39:00.230Z,5.13
2022-10-18T17:41:27.440Z,4.63
2022-10-18T17:43:54.185Z,3.85
2022-10-18T17:46:21.255Z,3.67
2022-10-18T17:48:48.118Z,3.03
2022-10-18T17:51:17.100Z,2.35
2022-10-18T17:53:44.350Z,2.55
2022-10-18T17:56:12.040Z,2.45
2022-10-18T17:58:39.307Z,2.53
2022-10-18T18:01:32.427Z,2.20
2022-10-18T18:04:01.417Z,2.03
2022-10-18T18:06:34.386Z,2.28
2022-10-18T18:09:07.528Z,2.28
2022-10-18T18:11:36.742Z,2.53
2022-10-18T18:14:08.536Z,2.00
2022-10-18T18:16:41.038Z,1.90
2022-10-18T18:19:09.845Z,2.13
2022-10-18T18:21:37.857Z,3.47
2022-10-18T18:24:05.203Z,3.22
2022-10-18T18:26:33.590Z,2.75
2022-10-18T18:31:30.769Z,2.60
2022-10-18T18:34:01.309Z,2.88
2022-10-18T18:36:32.830Z,3.47
2022-10-18T18:38:59.767Z,3.00
2022-10-18T18:41:27.900Z,3.63
2022-10-18T18:43:57.118Z,2.70
2022-10-18T18:46:25.417Z,2.40
2022-10-18T18:48:52.179Z,3.08
2022-10-18T18:51:20.887Z,4.68
2022-10-18T18:53:48.579Z,5.95
2022-10-18T18:56:18.390Z,10.40
2022-10-18T18:58:46.483Z,13.95
2022-10-18T19:01:19.560Z,10.25
2022-10-18T19:03:51.422Z,8.18
2022-10-18T19:06:44.542Z,6.55
2022-10-18T19:09:20.726Z,4.60
2022-10-18T19:11:49.795Z,4.63
2022-10-18T19:14:17.039Z,4.35
2022-10-18T19:16:53.399Z,3.17
2022-10-18T19:19:24.494Z,4.05
2022-10-18T19:21:53.452Z,3.33
2022-10-18T19:24:22.340Z,4.63
2022-10-18T19:27:01.680Z,3.85
2022-10-18T19:29:28.258Z,3.38
2022-10-18T19:31:58.475Z,2.88
2022-10-18T19:34:27.056Z,2.55
2022-10-18T19:36:54.546Z,2.47
2022-10-18T19:39:29.410Z,2.63
2022-10-18T19:41:58.637Z,2.20
2022-10-18T19:44:28.833Z,2.50
2022-10-18T19:46:55.856Z,2.53
2022-10-18T19:49:22.582Z,2.47
2022-10-18T19:51:49.726Z,2.38
2022-10-18T19:54:16.862Z,4.22
2022-10-18T19:56:44.385Z,7.35
2022-10-18T19:59:12.905Z,5.07
2022-10-18T20:01:39.776Z,3.90
2022-10-18T20:04:08.444Z,4.05
2022-10-18T20:06:36.869Z,3.55
2022-10-18T20:09:04.545Z,3.85
2022-10-18T20:11:31.370Z,4.30
2022-10-18T20:13:59.807Z,3.72
2022-10-18T20:16:29.840Z,3.58
2022-10-18T20:19:01.848Z,3.40
2022-10-18T20:21:30.494Z,3.53
2022-10-18T20:23:57.266Z,4.35
2022-10-18T20:26:25.553Z,3.35
2022-10-18T20:28:57.233Z,2.78
2022-10-18T20:31:34.089Z,3.60
2022-10-18T20:34:03.220Z,3.15
2022-10-18T20:36:31.802Z,3.75
2022-10-18T20:38:58.834Z,2.83
2022-10-18T20:41:28.366Z,3.85
2022-10-18T20:43:57.874Z,3.25
2022-10-18T20:46:25.854Z,2.63
2022-10-18T20:48:53.472Z,3.35
2022-10-18T20:51:21.164Z,2.90
2022-10-18T20:53:47.935Z,3.05
2022-10-18T20:56:17.390Z,3.33
2022-10-18T20:58:45.290Z,3.47
2022-10-18T21:01:16.593Z,3.17
2022-10-18T21:03:45.911Z,3.00
2022-10-18T21:06:15.192Z,2.55
2022-10-18T21:08:42.923Z,2.47
2022-10-18T21:11:10.333Z,2.58
2022-10-18T21:13:38.017Z,2.53
2022-10-18T21:16:06.200Z,2.10
2022-10-18T21:18:35.617Z,2.40
2022-10-18T21:21:10.893Z,2.45
2022-10-18T21:23:38.025Z,2.70
2022-10-18T21:26:05.425Z,2.60
2022-10-18T21:28:32.306Z,2.50
2022-10-18T21:31:29.728Z,2.88
2022-10-18T21:33:59.483Z,2.35
2022-10-18T21:36:27.968Z,2.50
2022-10-18T21:38:54.658Z,2.30
2022-10-18T21:41:22.517Z,3.47
2022-10-18T21:43:51.669Z,2.10
2022-10-18T21:46:20.333Z,2.30
2022-10-18T21:48:48.917Z,2.30
2022-10-18T21:51:20.296Z,2.60
2022-10-18T21:53:49.298Z,2.03
2022-10-18T21:56:21.964Z,3.42
2022-10-18T21:58:49.037Z,3.42
2022-10-18T22:01:20.400Z,3.63
2022-10-18T22:03:49.940Z,3.97
2022-10-18T22:06:17.645Z,4.13
2022-10-18T22:08:55.370Z,3.40
2022-10-18T22:11:25.531Z,2.85
2022-10-18T22:13:53.449Z,2.50
2022-10-18T22:16:20.592Z,3.65
2022-10-18T22:18:48.555Z,3.53
2022-10-18T22:21:18.094Z,2.33
2022-10-18T22:23:46.975Z,2.53
2022-10-18T22:26:14.900Z,3.15
2022-10-18T22:28:43.683Z,2.72
2022-10-18T22:31:18.517Z,2.92
2022-10-18T22:33:45.696Z,2.75
2022-10-18T22:36:13.227Z,2.90
2022-10-18T22:38:40.271Z,2.60
2022-10-18T22:41:11.777Z,2.90
2022-10-18T22:43:38.798Z,2.55
2022-10-18T22:46:08.161Z,2.75
2022-10-18T22:48:35.570Z,3.35
2022-10-18T22:51:02.788Z,3.33
2022-10-18T22:53:30.121Z,3.08
2022-10-18T22:55:57.068Z,2.60
2022-10-18T22:58:24.160Z,3.20
2022-10-18T23:04:37.797Z,3.00
2022-10-18T23:07:04.829Z,3.40
2022-10-18T23:09:31.584Z,3.25
2022-10-18T23:11:58.311Z,3.22
2022-10-18T23:14:25.016Z,2.60
2022-10-18T23:16:51.703Z,3.15
2022-10-18T23:19:18.420Z,2.90
2022-10-18T23:21:45.135Z,2.85
2022-10-18T23:24:12.187Z,2.45
2022-10-18T23:26:38.842Z,2.70
2022-10-18T23:29:05.600Z,2.90
2022-10-18T23:31:33.808Z,2.63
2022-10-18T23:34:05.368Z,2.90
2022-10-18T23:36:33.630Z,2.55
2022-10-18T23:39:00.414Z,3.05
2022-10-18T23:41:27.341Z,2.80
2022-10-18T23:43:54.112Z,2.50
2022-10-18T23:46:21.184Z,2.65
2022-10-18T23:48:48.581Z,2.42
2022-10-18T23:51:16.343Z,2.50
2022-10-18T23:53:43.403Z,2.63
2022-10-18T23:56:15.379Z,2.75
2022-10-18T23:58:42.575Z,2.25
